createdAt,value
2023-12-10T00:02:01.774Z,79.57
2023-12-10T00:07:08.210Z,79.79
2023-12-10T00:12:14.252Z,79.79
2023-12-10T00:17:20.668Z,79.18
2023-12-10T00:22:27.544Z,78.53
2023-12-10T00:27:34.013Z,78.57
2023-12-10T00:32:39.933Z,78.87
2023-12-10T00:37:45.862Z,78.68
2023-12-10T00:42:52.544Z,79.11
2023-12-10T00:47:58.832Z,78.57
2023-12-10T00:53:06.494Z,78.88
2023-12-10T00:58:12.948Z,78.95
2023-12-10T01:03:19.726Z,78.40
2023-12-10T01:08:25.707Z,77.87
2023-12-10T01:13:31.668Z,77.80
2023-12-10T01:18:38.978Z,78.24
2023-12-10T01:23:45.059Z,78.26
2023-12-10T01:28:51.448Z,78.54
2023-12-10T01:33:58.334Z,78.64
2023-12-10T01:39:02.749Z,78.83
2023-12-10T01:44:09.250Z,78.83
2023-12-10T01:49:15.934Z,79.42
2023-12-10T01:54:25.993Z,79.18
2023-12-10T01:59:32.570Z,79.22
2023-12-10T02:04:38.694Z,79.13
2023-12-10T02:09:44.745Z,79.01
2023-12-10T02:14:50.645Z,79.11
2023-12-10T02:19:56.629Z,79.14
2023-12-10T02:25:07.798Z,79.29
2023-12-10T02:30:16.877Z,79.26
2023-12-10T02:35:23.150Z,79.22
2023-12-10T02:40:29.143Z,79.55
2023-12-10T02:45:35.245Z,79.42
2023-12-10T02:50:41.287Z,79.38
2023-12-10T02:55:47.588Z,79.43
2023-12-10T03:00:53.722Z,79.50
2023-12-10T03:06:00.419Z,79.76
2023-12-10T03:11:06.852Z,79.42
2023-12-10T03:16:13.047Z,79.62
2023-12-10T03:21:19.015Z,79.59
2023-12-10T03:26:24.962Z,79.69
2023-12-10T03:31:30.904Z,79.53
2023-12-10T03:36:36.857Z,79.18
2023-12-10T03:41:42.934Z,79.34
2023-12-10T03:46:48.883Z,79.50
2023-12-10T03:51:54.920Z,79.55
2023-12-10T03:57:01.009Z,79.38
2023-12-10T04:02:07.278Z,79.72
2023-12-10T04:07:13.654Z,79.33
2023-12-10T04:12:19.588Z,79.59
2023-12-10T04:17:27.042Z,79.70
2023-12-10T04:22:33.004Z,79.97
2023-12-10T04:27:38.995Z,79.58
2023-12-10T04:32:45.043Z,79.69
2023-12-10T04:37:51.106Z,80.12
2023-12-10T04:42:57.133Z,80.23
2023-12-10T04:48:03.272Z,80.03
2023-12-10T04:53:09.352Z,80.14
2023-12-10T04:58:15.987Z,80.07
2023-12-10T05:03:22.310Z,80.25
2023-12-10T05:08:28.390Z,80.28
2023-12-10T05:13:34.858Z,80.06
2023-12-10T05:18:40.967Z,80.20
2023-12-10T05:23:47.067Z,80.40
2023-12-10T05:28:53.025Z,80.60
2023-12-10T05:33:59.105Z,80.57
2023-12-10T05:39:05.567Z,80.78
2023-12-10T05:44:11.510Z,80.51
2023-12-10T05:49:17.541Z,80.65
2023-12-10T05:54:23.890Z,80.85
2023-12-10T05:59:30.162Z,80.81
2023-12-10T06:04:36.177Z,81.05
2023-12-10T06:09:42.335Z,81.34
2023-12-10T06:14:48.313Z,81.25
2023-12-10T06:19:54.590Z,81.13
2023-12-10T06:25:00.636Z,81.57
2023-12-10T06:30:09.988Z,81.59
2023-12-10T06:35:16.130Z,81.55
2023-12-10T06:40:22.066Z,81.57
2023-12-10T06:45:28.292Z,81.84
2023-12-10T06:50:34.269Z,81.64
2023-12-10T06:55:40.819Z,81.75
2023-12-10T07:00:46.889Z,81.86
2023-12-10T07:05:54.140Z,81.93
2023-12-10T07:11:01.013Z,82.02
2023-12-10T07:16:07.711Z,82.07
2023-12-10T07:21:14.670Z,82.13
2023-12-10T07:26:24.677Z,81.97
2023-12-10T07:31:31.329Z,81.95
2023-12-10T07:36:40.320Z,81.99
2023-12-10T07:41:46.702Z,82.21
2023-12-10T07:46:52.807Z,82.09
2023-12-10T07:51:58.833Z,82.13
2023-12-10T07:57:05.071Z,82.43
2023-12-10T08:02:11.095Z,82.57
2023-12-10T08:07:17.285Z,82.69
2023-12-10T08:12:23.451Z,82.82
2023-12-10T08:17:29.393Z,82.51
2023-12-10T08:22:35.527Z,82.87
2023-12-10T08:27:41.681Z,82.84
2023-12-10T08:32:47.659Z,82.94
2023-12-10T08:37:53.577Z,83.02
2023-12-10T08:42:59.545Z,83.16
2023-12-10T08:48:06.176Z,83.08
2023-12-10T08:53:12.114Z,83.69
2023-12-10T08:58:19.456Z,83.93
2023-12-10T09:03:25.516Z,84.11
2023-12-10T09:08:31.662Z,84.23
2023-12-10T09:13:38.115Z,84.59
2023-12-10T09:18:45.020Z,84.26
2023-12-10T09:23:51.427Z,84.13
2023-12-10T09:28:57.428Z,84.04
2023-12-10T09:34:03.528Z,83.73
2023-12-10T09:39:10.206Z,84.34
2023-12-10T09:44:16.192Z,84.15
2023-12-10T09:49:24.579Z,84.01
2023-12-10T09:54:31.112Z,84.46
2023-12-10T09:59:37.419Z,83.86
2023-12-10T10:04:44.832Z,83.62
2023-12-10T10:09:52.608Z,83.50
2023-12-10T10:14:59.844Z,83.43
2023-12-10T10:20:06.869Z,83.26
2023-12-10T10:25:14.216Z,83.61
2023-12-10T10:30:20.517Z,83.22
2023-12-10T10:35:26.574Z,82.87
2023-12-10T10:40:33.056Z,82.75
2023-12-10T10:45:47.163Z,83.47
2023-12-10T10:50:55.529Z,83.82
2023-12-10T10:56:02.430Z,83.12
2023-12-10T11:01:28.775Z,83.62
2023-12-10T11:06:37.127Z,83.11
2023-12-10T11:11:43.295Z,83.16
2023-12-10T11:16:52.738Z,83.61
2023-12-10T11:21:58.748Z,83.74
2023-12-10T11:27:04.923Z,83.99
2023-12-10T11:32:11.427Z,83.58
2023-12-10T11:37:17.400Z,83.44
2023-12-10T11:42:23.369Z,84.09
2023-12-10T11:47:30.268Z,83.83
2023-12-10T11:52:37.124Z,83.91
2023-12-10T11:57:47.053Z,84.50
2023-12-10T12:02:54.274Z,84.19
2023-12-10T12:08:02.011Z,84.41
2023-12-10T12:13:08.919Z,84.08
2023-12-10T12:18:15.207Z,83.95
2023-12-10T12:23:21.142Z,84.77
2023-12-10T12:28:27.378Z,84.76
2023-12-10T12:33:33.617Z,84.22
2023-12-10T12:38:39.613Z,84.94
2023-12-10T12:43:45.560Z,84.66
2023-12-10T12:48:51.753Z,84.53
2023-12-10T12:54:11.884Z,84.61
2023-12-10T12:59:20.085Z,85.13
2023-12-10T13:04:26.271Z,84.63
2023-12-10T13:09:32.541Z,84.59
2023-12-10T13:14:39.002Z,84.76
2023-12-10T13:19:45.343Z,84.62
2023-12-10T13:24:51.382Z,84.99
2023-12-10T13:29:57.579Z,84.62
2023-12-10T13:35:03.826Z,84.72
2023-12-10T13:40:13.045Z,84.41
2023-12-10T13:45:19.001Z,84.08
2023-12-10T13:50:25.507Z,84.54
2023-12-10T13:55:31.906Z,84.70
2023-12-10T14:00:37.949Z,84.83
2023-12-10T14:05:44.577Z,84.45
2023-12-10T14:10:50.616Z,84.53
2023-12-10T14:15:57.343Z,84.34
2023-12-10T14:21:01.729Z,84.52
2023-12-10T14:26:07.859Z,84.09
2023-12-10T14:31:13.780Z,84.16
2023-12-10T14:36:19.776Z,84.42
2023-12-10T14:41:25.881Z,84.53
2023-12-10T14:46:33.416Z,84.51
2023-12-10T14:51:39.487Z,84.45
2023-12-10T14:56:47.604Z,85.09
2023-12-10T15:02:01.842Z,84.65
2023-12-10T15:07:15.335Z,84.50
2023-12-10T15:12:21.271Z,84.34
2023-12-10T15:17:27.496Z,84.58
2023-12-10T15:22:33.714Z,84.97
2023-12-10T15:27:39.872Z,84.84
2023-12-10T15:32:46.739Z,84.77
2023-12-10T15:37:52.925Z,85.11
2023-12-10T15:42:58.894Z,85.11
2023-12-10T15:48:05.142Z,85.08
2023-12-10T15:53:11.245Z,85.73
2023-12-10T15:58:17.873Z,85.15
2023-12-10T16:03:24.459Z,84.78
2023-12-10T16:08:30.670Z,85.34
2023-12-10T16:13:36.592Z,85.40
2023-12-10T16:18:45.651Z,85.10
2023-12-10T16:23:53.051Z,85.34
2023-12-10T16:28:59.952Z,85.39
2023-12-10T16:34:05.932Z,85.57
2023-12-10T16:39:12.252Z,85.33
2023-12-10T16:44:18.109Z,85.44
2023-12-10T16:49:24.166Z,85.08
2023-12-10T16:54:30.313Z,85.11
2023-12-10T16:59:36.826Z,85.46
2023-12-10T17:04:42.947Z,85.41
2023-12-10T17:09:49.213Z,85.18
2023-12-10T17:14:55.372Z,85.36
2023-12-10T17:20:01.712Z,84.97
2023-12-10T17:25:10.731Z,85.06
2023-12-10T17:30:18.253Z,85.22
2023-12-10T17:35:24.215Z,85.58
2023-12-10T17:40:30.380Z,84.99
2023-12-10T17:45:36.470Z,85.36
2023-12-10T17:50:42.506Z,85.24
2023-12-10T17:55:48.646Z,85.33
2023-12-10T18:00:55.455Z,85.08
2023-12-10T18:06:01.665Z,85.14
2023-12-10T18:11:07.870Z,85.54
2023-12-10T18:16:23.106Z,85.21
2023-12-10T18:21:29.102Z,85.46
2023-12-10T18:26:35.025Z,85.06
2023-12-10T18:31:40.880Z,84.90
2023-12-10T18:36:46.823Z,85.01
2023-12-10T18:41:52.740Z,85.36
2023-12-10T18:46:58.641Z,85.29
2023-12-10T18:52:08.203Z,85.27
2023-12-10T18:57:14.207Z,85.11
2023-12-10T19:02:20.730Z,85.34
2023-12-10T19:07:26.814Z,85.35
2023-12-10T19:12:32.958Z,85.51
2023-12-10T19:17:39.697Z,85.57
2023-12-10T19:22:45.679Z,85.46
2023-12-10T19:27:51.727Z,85.56
2023-12-10T19:32:58.567Z,85.22
2023-12-10T19:38:04.564Z,85.06
2023-12-10T19:43:10.569Z,85.13
2023-12-10T19:48:16.963Z,85.17
2023-12-10T19:53:23.016Z,85.83
2023-12-10T19:58:29.595Z,85.60
2023-12-10T20:03:35.595Z,85.86
2023-12-10T20:08:43.524Z,86.04
2023-12-10T20:13:49.656Z,85.94
2023-12-10T20:18:55.770Z,85.72
2023-12-10T20:24:02.229Z,85.79
2023-12-10T20:29:08.861Z,85.94
2023-12-10T20:34:26.606Z,86.48
2023-12-10T20:39:38.656Z,86.07
2023-12-10T20:44:44.619Z,86.35
2023-12-10T20:49:50.509Z,86.09
2023-12-10T20:54:56.823Z,85.96
2023-12-10T21:00:05.688Z,86.03
2023-12-10T21:05:12.379Z,85.30
2023-12-10T21:10:18.430Z,85.94
2023-12-10T21:15:24.690Z,87.36
2023-12-10T21:20:31.154Z,88.66
2023-12-10T21:25:38.378Z,88.00
2023-12-10T21:30:44.248Z,87.60
2023-12-10T21:35:50.188Z,86.45
2023-12-10T21:40:56.073Z,86.44
2023-12-10T21:46:02.055Z,84.62
2023-12-10T21:51:09.654Z,84.17
2023-12-10T21:56:16.215Z,83.98
2023-12-10T22:01:21.695Z,83.89
2023-12-10T22:06:28.101Z,83.93
2023-12-10T22:11:34.293Z,83.97
2023-12-10T22:16:40.391Z,84.04
2023-12-10T22:21:46.610Z,83.63
2023-12-10T22:26:52.506Z,83.76
2023-12-10T22:31:58.369Z,83.69
2023-12-10T22:37:04.459Z,83.68
2023-12-10T22:42:10.874Z,83.85
2023-12-10T22:47:17.365Z,83.99
2023-12-10T22:52:21.605Z,83.74
2023-12-10T22:57:28.608Z,83.76
2023-12-10T23:02:34.697Z,83.57
2023-12-10T23:07:40.685Z,83.77
2023-12-10T23:12:46.686Z,83.42
2023-12-10T23:17:52.595Z,83.29
2023-12-10T23:22:58.466Z,83.39
2023-12-10T23:28:04.424Z,83.09
2023-12-10T23:33:10.417Z,83.18
2023-12-10T23:38:16.983Z,82.99
2023-12-10T23:43:21.220Z,82.97
2023-12-10T23:48:27.170Z,82.65
2023-12-10T23:53:33.310Z,82.76
2023-12-10T23:58:40.808Z,82.40
